sensor_id;sensor_type;location;lat;lon;timestamp;P1;durP1;ratioP1;P2;durP2;ratioP2
35552;SDS011;21656;46.054;13.614;2022-11-13T07:07:33;13.95;;;6.32;;
35552;SDS011;21656;46.054;13.614;2022-11-13T07:09:58;10.43;;;6.05;;
35552;SDS011;21656;46.054;13.614;2022-11-13T07:12:24;18.02;;;8.70;;
35552;SDS011;21656;46.054;13.614;2022-11-13T07:14:51;16.13;;;7.15;;
35552;SDS011;21656;46.054;13.614;2022-11-13T07:17:16;11.18;;;6.45;;
35552;SDS011;21656;46.054;13.614;2022-11-13T07:19:42;13.95;;;6.18;;
35552;SDS011;21656;46.054;13.614;2022-11-13T07:22:07;11.73;;;6.88;;
35552;SDS011;21656;46.054;13.614;2022-11-13T07:24:32;14.43;;;6.97;;
35552;SDS011;21656;46.054;13.614;2022-11-13T07:26:58;9.77;;;6.13;;
35552;SDS011;21656;46.054;13.614;2022-11-13T07:29:23;8.80;;;6.20;;
35552;SDS011;21656;46.054;13.614;2022-11-13T07:31:48;9.73;;;6.70;;
35552;SDS011;21656;46.054;13.614;2022-11-13T07:34:14;10.52;;;6.97;;
35552;SDS011;21656;46.054;13.614;2022-11-13T07:36:39;14.35;;;7.28;;
35552;SDS011;21656;46.054;13.614;2022-11-13T07:39:05;16.30;;;8.57;;
35552;SDS011;21656;46.054;13.614;2022-11-13T07:41:30;13.20;;;7.07;;
35552;SDS011;21656;46.054;13.614;2022-11-13T07:43:56;11.70;;;7.38;;
35552;SDS011;21656;46.054;13.614;2022-11-13T07:46:22;12.02;;;7.50;;
35552;SDS011;21656;46.054;13.614;2022-11-13T07:48:47;12.10;;;7.18;;
35552;SDS011;21656;46.054;13.614;2022-11-13T07:51:13;13.35;;;7.50;;
35552;SDS011;21656;46.054;13.614;2022-11-13T07:53:38;10.82;;;6.90;;
35552;SDS011;21656;46.054;13.614;2022-11-13T07:56:05;10.70;;;6.55;;
35552;SDS011;21656;46.054;13.614;2022-11-13T07:58:31;10.98;;;6.65;;
35552;SDS011;21656;46.054;13.614;2022-11-13T08:01:03;11.13;;;6.68;;
35552;SDS011;21656;46.054;13.614;2022-11-13T08:03:29;11.43;;;7.10;;
35552;SDS011;21656;46.054;13.614;2022-11-13T08:06:03;12.13;;;6.00;;
35552;SDS011;21656;46.054;13.614;2022-11-13T08:08:31;9.95;;;5.55;;
35552;SDS011;21656;46.054;13.614;2022-11-13T08:10:56;11.20;;;6.65;;
35552;SDS011;21656;46.054;13.614;2022-11-13T08:13:22;9.32;;;6.18;;
35552;SDS011;21656;46.054;13.614;2022-11-13T08:15:48;9.63;;;6.20;;
35552;SDS011;21656;46.054;13.614;2022-11-13T08:18:13;9.40;;;6.22;;
35552;SDS011;21656;46.054;13.614;2022-11-13T08:20:39;11.68;;;6.40;;
35552;SDS011;21656;46.054;13.614;2022-11-13T08:23:04;16.98;;;9.57;;
35552;SDS011;21656;46.054;13.614;2022-11-13T08:25:30;10.85;;;6.65;;
35552;SDS011;21656;46.054;13.614;2022-11-13T08:27:58;8.20;;;5.85;;
35552;SDS011;21656;46.054;13.614;2022-11-13T08:30:24;10.15;;;5.70;;
35552;SDS011;21656;46.054;13.614;2022-11-13T08:32:51;10.90;;;5.63;;
35552;SDS011;21656;46.054;13.614;2022-11-13T08:35:17;10.98;;;6.13;;
35552;SDS011;21656;46.054;13.614;2022-11-13T08:37:43;9.30;;;5.60;;
35552;SDS011;21656;46.054;13.614;2022-11-13T08:40:08;9.23;;;5.45;;
35552;SDS011;21656;46.054;13.614;2022-11-13T08:42:34;9.48;;;5.90;;
35552;SDS011;21656;46.054;13.614;2022-11-13T08:45:01;10.05;;;5.78;;
35552;SDS011;21656;46.054;13.614;2022-11-13T08:47:26;9.40;;;5.90;;
35552;SDS011;21656;46.054;13.614;2022-11-13T08:49:53;8.77;;;5.82;;
35552;SDS011;21656;46.054;13.614;2022-11-13T08:52:19;12.40;;;6.28;;
35552;SDS011;21656;46.054;13.614;2022-11-13T08:54:45;10.38;;;5.72;;
35552;SDS011;21656;46.054;13.614;2022-11-13T08:57:10;9.18;;;6.05;;
35552;SDS011;21656;46.054;13.614;2022-11-13T08:59:36;12.07;;;6.57;;
35552;SDS011;21656;46.054;13.614;2022-11-13T09:02:01;11.18;;;6.93;;
35552;SDS011;21656;46.054;13.614;2022-11-13T09:04:27;12.88;;;7.70;;
35552;SDS011;21656;46.054;13.614;2022-11-13T09:06:52;9.13;;;6.50;;
35552;SDS011;21656;46.054;13.614;2022-11-13T09:09:19;9.98;;;6.25;;
35552;SDS011;21656;46.054;13.614;2022-11-13T09:11:45;10.68;;;7.13;;
35552;SDS011;21656;46.054;13.614;2022-11-13T09:14:11;8.27;;;5.97;;
35552;SDS011;21656;46.054;13.614;2022-11-13T09:16:36;11.27;;;6.45;;
35552;SDS011;21656;46.054;13.614;2022-11-13T09:19:02;9.82;;;6.43;;
35552;SDS011;21656;46.054;13.614;2022-11-13T09:21:28;13.07;;;6.32;;
35552;SDS011;21656;46.054;13.614;2022-11-13T09:23:53;8.20;;;6.18;;
35552;SDS011;21656;46.054;13.614;2022-11-13T09:26:19;8.77;;;5.70;;
35552;SDS011;21656;46.054;13.614;2022-11-13T09:28:44;7.95;;;5.40;;
35552;SDS011;21656;46.054;13.614;2022-11-13T09:31:10;9.68;;;6.07;;
35552;SDS011;21656;46.054;13.614;2022-11-13T09:33:35;8.50;;;5.78;;
35552;SDS011;21656;46.054;13.614;2022-11-13T09:36:01;8.93;;;5.70;;
35552;SDS011;21656;46.054;13.614;2022-11-13T09:38:27;9.63;;;5.80;;
35552;SDS011;21656;46.054;13.614;2022-11-13T09:41:02;10.15;;;6.60;;
35552;SDS011;21656;46.054;13.614;2022-11-13T09:46:37;7.82;;;5.15;;
35552;SDS011;21656;46.054;13.614;2022-11-13T09:52:10;9.07;;;5.20;;
35552;SDS011;21656;46.054;13.614;2022-11-13T09:54:34;8.05;;;4.97;;
35552;SDS011;21656;46.054;13.614;2022-11-13T10:00:05;12.90;;;5.88;;
35552;SDS011;21656;46.054;13.614;2022-11-13T10:12:45;6.10;;;4.68;;
35552;SDS011;21656;46.054;13.614;2022-11-13T10:15:15;8.25;;;5.13;;
35552;SDS011;21656;46.054;13.614;2022-11-13T10:17:43;6.20;;;4.88;;
35552;SDS011;21656;46.054;13.614;2022-11-13T10:20:21;9.85;;;5.43;;
35552;SDS011;21656;46.054;13.614;2022-11-13T10:26:13;7.45;;;5.32;;
35552;SDS011;21656;46.054;13.614;2022-11-13T10:28:46;7.35;;;4.60;;
35552;SDS011;21656;46.054;13.614;2022-11-13T10:31:25;6.10;;;4.28;;
35552;SDS011;21656;46.054;13.614;2022-11-13T10:33:51;6.70;;;4.40;;
35552;SDS011;21656;46.054;13.614;2022-11-13T10:36:30;6.53;;;4.25;;
35552;SDS011;21656;46.054;13.614;2022-11-13T10:39:04;6.50;;;4.20;;
35552;SDS011;21656;46.054;13.614;2022-11-13T10:41:31;6.20;;;4.20;;
35552;SDS011;21656;46.054;13.614;2022-11-13T10:44:01;7.35;;;4.10;;
35552;SDS011;21656;46.054;13.614;2022-11-13T10:46:30;5.38;;;3.67;;
35552;SDS011;21656;46.054;13.614;2022-11-13T10:48:57;5.40;;;3.97;;
35552;SDS011;21656;46.054;13.614;2022-11-13T10:51:27;6.25;;;4.43;;
35552;SDS011;21656;46.054;13.614;2022-11-13T10:53:55;5.03;;;3.60;;
35552;SDS011;21656;46.054;13.614;2022-11-13T11:01:43;4.68;;;3.63;;
35552;SDS011;21656;46.054;13.614;2022-11-13T11:04:30;6.32;;;3.80;;
35552;SDS011;21656;46.054;13.614;2022-11-13T11:07:02;5.05;;;3.58;;
35552;SDS011;21656;46.054;13.614;2022-11-13T11:09:39;5.57;;;3.20;;
35552;SDS011;21656;46.054;13.614;2022-11-13T11:12:10;4.72;;;3.15;;
35552;SDS011;21656;46.054;13.614;2022-11-13T11:14:51;4.55;;;3.30;;
35552;SDS011;21656;46.054;13.614;2022-11-13T11:17:30;5.90;;;3.75;;
35552;SDS011;21656;46.054;13.614;2022-11-13T11:20:06;6.78;;;3.72;;
35552;SDS011;21656;46.054;13.614;2022-11-13T11:22:33;5.35;;;3.35;;
35552;SDS011;21656;46.054;13.614;2022-11-13T11:25:04;4.38;;;3.05;;
35552;SDS011;21656;46.054;13.614;2022-11-13T11:27:39;5.55;;;3.67;;
35552;SDS011;21656;46.054;13.614;2022-11-13T11:32:46;4.28;;;2.70;;
35552;SDS011;21656;46.054;13.614;2022-11-13T11:35:44;4.53;;;3.00;;
35552;SDS011;21656;46.054;13.614;2022-11-13T11:38:28;4.53;;;3.00;;
35552;SDS011;21656;46.054;13.614;2022-11-13T11:41:07;5.70;;;3.22;;
35552;SDS011;21656;46.054;13.614;2022-11-13T11:43:42;5.78;;;3.05;;
35552;SDS011;21656;46.054;13.614;2022-11-13T11:46:10;3.47;;;2.70;;
35552;SDS011;21656;46.054;13.614;2022-11-13T11:48:40;5.15;;;3.65;;
35552;SDS011;21656;46.054;13.614;2022-11-13T11:51:16;5.80;;;3.33;;
35552;SDS011;21656;46.054;13.614;2022-11-13T11:56:32;4.88;;;3.50;;
35552;SDS011;21656;46.054;13.614;2022-11-13T12:07:28;5.25;;;3.63;;
35552;SDS011;21656;46.054;13.614;2022-11-13T12:12:37;8.23;;;4.13;;
35552;SDS011;21656;46.054;13.614;2022-11-13T12:15:18;5.63;;;3.67;;
35552;SDS011;21656;46.054;13.614;2022-11-13T12:20:55;5.47;;;3.65;;
35552;SDS011;21656;46.054;13.614;2022-11-13T12:23:48;6.22;;;4.07;;
35552;SDS011;21656;46.054;13.614;2022-11-13T12:26:52;6.35;;;4.13;;
35552;SDS011;21656;46.054;13.614;2022-11-13T12:34:54;7.53;;;4.68;;
35552;SDS011;21656;46.054;13.614;2022-11-13T12:40:18;6.53;;;4.82;;
35552;SDS011;21656;46.054;13.614;2022-11-13T12:45:52;7.90;;;5.38;;
35552;SDS011;21656;46.054;13.614;2022-11-13T12:50:56;7.60;;;4.82;;
35552;SDS011;21656;46.054;13.614;2022-11-13T12:53:28;10.38;;;5.18;;
35552;SDS011;21656;46.054;13.614;2022-11-13T12:55:59;7.40;;;4.68;;
35552;SDS011;21656;46.054;13.614;2022-11-13T12:58:29;9.48;;;4.95;;
35552;SDS011;21656;46.054;13.614;2022-11-13T13:01:12;5.30;;;4.13;;
35552;SDS011;21656;46.054;13.614;2022-11-13T13:18:12;6.32;;;4.65;;
35552;SDS011;21656;46.054;13.614;2022-11-13T13:23:28;8.93;;;5.38;;
35552;SDS011;21656;46.054;13.614;2022-11-13T13:26:02;8.85;;;5.90;;
35552;SDS011;21656;46.054;13.614;2022-11-13T13:28:30;7.07;;;4.78;;
35552;SDS011;21656;46.054;13.614;2022-11-13T13:31:02;8.60;;;5.35;;
35552;SDS011;21656;46.054;13.614;2022-11-13T13:39:31;6.65;;;4.97;;
35552;SDS011;21656;46.054;13.614;2022-11-13T13:42:09;9.38;;;5.53;;
35552;SDS011;21656;46.054;13.614;2022-11-13T13:47:25;8.32;;;5.30;;
35552;SDS011;21656;46.054;13.614;2022-11-13T13:50:07;9.23;;;6.57;;
35552;SDS011;21656;46.054;13.614;2022-11-13T13:52:40;9.63;;;5.85;;
35552;SDS011;21656;46.054;13.614;2022-11-13T13:57:56;10.13;;;5.90;;
35552;SDS011;21656;46.054;13.614;2022-11-13T14:00:21;8.52;;;5.47;;
35552;SDS011;21656;46.054;13.614;2022-11-13T14:02:48;8.55;;;5.85;;
35552;SDS011;21656;46.054;13.614;2022-11-13T14:05:23;8.02;;;5.60;;
35552;SDS011;21656;46.054;13.614;2022-11-13T14:07:59;8.23;;;5.78;;
35552;SDS011;21656;46.054;13.614;2022-11-13T14:10:31;10.30;;;5.97;;
35552;SDS011;21656;46.054;13.614;2022-11-13T14:13:00;9.50;;;6.32;;
35552;SDS011;21656;46.054;13.614;2022-11-13T14:15:30;10.85;;;6.10;;
35552;SDS011;21656;46.054;13.614;2022-11-13T14:20:53;7.18;;;5.93;;
35552;SDS011;21656;46.054;13.614;2022-11-13T14:23:31;10.20;;;6.82;;
35552;SDS011;21656;46.054;13.614;2022-11-13T14:25:58;9.88;;;6.32;;
35552;SDS011;21656;46.054;13.614;2022-11-13T14:28:24;9.05;;;6.63;;
35552;SDS011;21656;46.054;13.614;2022-11-13T14:30:59;9.70;;;6.75;;
35552;SDS011;21656;46.054;13.614;2022-11-13T14:33:31;12.88;;;7.10;;
35552;SDS011;21656;46.054;13.614;2022-11-13T14:35:59;9.57;;;6.80;;
35552;SDS011;21656;46.054;13.614;2022-11-13T14:38:29;9.40;;;6.47;;
35552;SDS011;21656;46.054;13.614;2022-11-13T14:40:58;10.98;;;7.22;;
35552;SDS011;21656;46.054;13.614;2022-11-13T14:43:29;13.57;;;6.75;;
35552;SDS011;21656;46.054;13.614;2022-11-13T14:45:59;14.15;;;8.13;;
35552;SDS011;21656;46.054;13.614;2022-11-13T14:48:30;12.25;;;7.05;;
35552;SDS011;21656;46.054;13.614;2022-11-13T14:53:30;8.95;;;5.25;;
35552;SDS011;21656;46.054;13.614;2022-11-13T14:56:01;8.43;;;5.30;;
35552;SDS011;21656;46.054;13.614;2022-11-13T14:58:30;9.23;;;5.60;;
35552;SDS011;21656;46.054;13.614;2022-11-13T15:01:20;11.23;;;6.65;;
35552;SDS011;21656;46.054;13.614;2022-11-13T15:03:47;10.90;;;6.50;;
35552;SDS011;21656;46.054;13.614;2022-11-13T15:08:45;9.63;;;6.25;;
35552;SDS011;21656;46.054;13.614;2022-11-13T15:11:13;14.52;;;8.35;;
35552;SDS011;21656;46.054;13.614;2022-11-13T15:13:40;7.63;;;5.72;;
35552;SDS011;21656;46.054;13.614;2022-11-13T15:16:08;10.07;;;7.35;;
35552;SDS011;21656;46.054;13.614;2022-11-13T15:18:37;9.77;;;7.00;;
35552;SDS011;21656;46.054;13.614;2022-11-13T15:23:36;14.80;;;8.52;;
35552;SDS011;21656;46.054;13.614;2022-11-13T15:26:02;11.07;;;7.30;;
35552;SDS011;21656;46.054;13.614;2022-11-13T15:28:28;10.18;;;6.70;;
35552;SDS011;21656;46.054;13.614;2022-11-13T15:30:54;9.95;;;7.63;;
35552;SDS011;21656;46.054;13.614;2022-11-13T15:33:20;11.40;;;7.60;;
35552;SDS011;21656;46.054;13.614;2022-11-13T15:35:45;11.80;;;7.00;;
35552;SDS011;21656;46.054;13.614;2022-11-13T15:38:11;8.73;;;5.82;;
35552;SDS011;21656;46.054;13.614;2022-11-13T15:40:37;8.27;;;6.38;;
35552;SDS011;21656;46.054;13.614;2022-11-13T15:43:03;9.13;;;6.15;;
35552;SDS011;21656;46.054;13.614;2022-11-13T15:45:31;11.98;;;6.45;;
35552;SDS011;21656;46.054;13.614;2022-11-13T15:47:57;11.13;;;6.78;;
35552;SDS011;21656;46.054;13.614;2022-11-13T15:50:23;12.00;;;6.75;;
35552;SDS011;21656;46.054;13.614;2022-11-13T15:52:49;11.60;;;7.38;;
35552;SDS011;21656;46.054;13.614;2022-11-13T15:55:26;8.85;;;6.55;;
35552;SDS011;21656;46.054;13.614;2022-11-13T15:57:55;10.05;;;6.68;;
35552;SDS011;21656;46.054;13.614;2022-11-13T16:00:26;10.05;;;6.60;;
35552;SDS011;21656;46.054;13.614;2022-11-13T16:02:53;10.30;;;6.75;;
35552;SDS011;21656;46.054;13.614;2022-11-13T16:05:24;11.90;;;7.43;;
35552;SDS011;21656;46.054;13.614;2022-11-13T16:07:53;12.33;;;7.27;;
35552;SDS011;21656;46.054;13.614;2022-11-13T16:10:22;12.88;;;7.70;;
35552;SDS011;21656;46.054;13.614;2022-11-13T16:12:52;12.43;;;8.85;;
35552;SDS011;21656;46.054;13.614;2022-11-13T16:15:18;12.95;;;8.07;;
35552;SDS011;21656;46.054;13.614;2022-11-13T16:17:46;14.65;;;8.93;;
35552;SDS011;21656;46.054;13.614;2022-11-13T16:20:16;12.10;;;7.93;;
35552;SDS011;21656;46.054;13.614;2022-11-13T16:22:44;14.05;;;7.60;;
35552;SDS011;21656;46.054;13.614;2022-11-13T16:25:15;12.77;;;8.52;;
35552;SDS011;21656;46.054;13.614;2022-11-13T16:27:42;19.83;;;10.43;;
35552;SDS011;21656;46.054;13.614;2022-11-13T16:30:14;10.60;;;7.90;;
35552;SDS011;21656;46.054;13.614;2022-11-13T16:32:41;11.10;;;7.80;;
35552;SDS011;21656;46.054;13.614;2022-11-13T16:35:11;11.70;;;8.30;;
35552;SDS011;21656;46.054;13.614;2022-11-13T16:37:40;11.23;;;8.23;;
35552;SDS011;21656;46.054;13.614;2022-11-13T16:40:28;12.35;;;8.95;;
35552;SDS011;21656;46.054;13.614;2022-11-13T16:42:54;10.30;;;7.82;;
35552;SDS011;21656;46.054;13.614;2022-11-13T16:45:22;13.43;;;8.75;;
35552;SDS011;21656;46.054;13.614;2022-11-13T16:47:48;13.70;;;9.05;;
35552;SDS011;21656;46.054;13.614;2022-11-13T16:52:44;12.73;;;8.75;;
35552;SDS011;21656;46.054;13.614;2022-11-13T16:55:10;13.90;;;9.68;;
35552;SDS011;21656;46.054;13.614;2022-11-13T16:57:36;19.60;;;11.70;;
35552;SDS011;21656;46.054;13.614;2022-11-13T17:00:04;16.10;;;11.13;;
35552;SDS011;21656;46.054;13.614;2022-11-13T17:02:31;16.83;;;11.48;;
35552;SDS011;21656;46.054;13.614;2022-11-13T17:04:57;19.05;;;11.27;;
35552;SDS011;21656;46.054;13.614;2022-11-13T17:07:22;14.25;;;10.23;;
35552;SDS011;21656;46.054;13.614;2022-11-13T17:09:48;13.50;;;9.05;;
35552;SDS011;21656;46.054;13.614;2022-11-13T17:12:14;12.75;;;8.18;;
35552;SDS011;21656;46.054;13.614;2022-11-13T17:14:40;13.18;;;8.60;;
35552;SDS011;21656;46.054;13.614;2022-11-13T17:17:06;16.60;;;9.23;;
35552;SDS011;21656;46.054;13.614;2022-11-13T17:19:35;13.18;;;9.30;;
35552;SDS011;21656;46.054;13.614;2022-11-13T17:22:07;19.70;;;12.77;;
35552;SDS011;21656;46.054;13.614;2022-11-13T17:24:38;17.33;;;11.57;;
35552;SDS011;21656;46.054;13.614;2022-11-13T17:27:04;14.02;;;9.27;;
35552;SDS011;21656;46.054;13.614;2022-11-13T17:29:31;15.45;;;10.20;;
35552;SDS011;21656;46.054;13.614;2022-11-13T17:31:56;12.02;;;8.63;;
35552;SDS011;21656;46.054;13.614;2022-11-13T17:34:23;17.60;;;10.05;;
35552;SDS011;21656;46.054;13.614;2022-11-13T17:36:49;14.93;;;10.70;;
35552;SDS011;21656;46.054;13.614;2022-11-13T17:39:16;16.17;;;10.25;;
35552;SDS011;21656;46.054;13.614;2022-11-13T17:41:41;15.55;;;9.90;;
35552;SDS011;21656;46.054;13.614;2022-11-13T17:44:07;17.08;;;11.10;;
35552;SDS011;21656;46.054;13.614;2022-11-13T17:46:33;34.95;;;19.00;;
35552;SDS011;21656;46.054;13.614;2022-11-13T17:48:59;30.52;;;18.35;;
35552;SDS011;21656;46.054;13.614;2022-11-13T17:51:25;21.10;;;12.18;;
35552;SDS011;21656;46.054;13.614;2022-11-13T17:53:51;35.10;;;19.88;;
35552;SDS011;21656;46.054;13.614;2022-11-13T17:56:17;18.33;;;10.40;;
35552;SDS011;21656;46.054;13.614;2022-11-13T17:58:44;15.77;;;9.93;;
35552;SDS011;21656;46.054;13.614;2022-11-13T18:01:14;14.73;;;9.52;;
35552;SDS011;21656;46.054;13.614;2022-11-13T18:03:42;22.70;;;13.52;;
35552;SDS011;21656;46.054;13.614;2022-11-13T18:06:09;18.83;;;11.18;;
35552;SDS011;21656;46.054;13.614;2022-11-13T18:08:41;16.27;;;9.50;;
35552;SDS011;21656;46.054;13.614;2022-11-13T18:13:44;21.85;;;9.82;;
35552;SDS011;21656;46.054;13.614;2022-11-13T18:16:12;15.68;;;8.30;;
35552;SDS011;21656;46.054;13.614;2022-11-13T18:18:40;11.95;;;8.77;;
35552;SDS011;21656;46.054;13.614;2022-11-13T18:21:07;11.57;;;7.93;;
35552;SDS011;21656;46.054;13.614;2022-11-13T18:23:37;12.52;;;7.78;;
35552;SDS011;21656;46.054;13.614;2022-11-13T18:26:10;10.63;;;7.80;;
35552;SDS011;21656;46.054;13.614;2022-11-13T18:28:38;13.40;;;8.32;;
35552;SDS011;21656;46.054;13.614;2022-11-13T18:31:11;12.88;;;8.18;;
35552;SDS011;21656;46.054;13.614;2022-11-13T18:33:38;11.73;;;7.60;;
35552;SDS011;21656;46.054;13.614;2022-11-13T18:36:04;11.75;;;7.45;;
35552;SDS011;21656;46.054;13.614;2022-11-13T18:38:30;12.73;;;8.50;;
35552;SDS011;21656;46.054;13.614;2022-11-13T18:41:04;13.93;;;8.52;;
35552;SDS011;21656;46.054;13.614;2022-11-13T18:43:31;12.77;;;8.45;;
35552;SDS011;21656;46.054;13.614;2022-11-13T18:46:06;11.75;;;8.73;;
35552;SDS011;21656;46.054;13.614;2022-11-13T18:48:34;12.20;;;7.97;;
35552;SDS011;21656;46.054;13.614;2022-11-13T18:51:03;15.13;;;8.00;;
35552;SDS011;21656;46.054;13.614;2022-11-13T18:53:31;11.43;;;8.52;;
35552;SDS011;21656;46.054;13.614;2022-11-13T18:55:58;13.50;;;8.35;;
35552;SDS011;21656;46.054;13.614;2022-11-13T18:58:28;13.43;;;8.57;;
35552;SDS011;21656;46.054;13.614;2022-11-13T19:00:54;12.10;;;8.65;;
35552;SDS011;21656;46.054;13.614;2022-11-13T19:03:20;13.50;;;9.20;;
35552;SDS011;21656;46.054;13.614;2022-11-13T19:05:47;14.98;;;9.25;;
35552;SDS011;21656;46.054;13.614;2022-11-13T19:08:13;15.13;;;8.93;;
35552;SDS011;21656;46.054;13.614;2022-11-13T19:10:39;14.90;;;9.50;;
35552;SDS011;21656;46.054;13.614;2022-11-13T19:13:06;16.33;;;9.57;;
35552;SDS011;21656;46.054;13.614;2022-11-13T19:15:36;12.77;;;8.57;;
35552;SDS011;21656;46.054;13.614;2022-11-13T19:18:03;14.82;;;9.38;;
35552;SDS011;21656;46.054;13.614;2022-11-13T19:20:30;17.10;;;10.85;;
35552;SDS011;21656;46.054;13.614;2022-11-13T19:22:56;14.55;;;9.45;;
35552;SDS011;21656;46.054;13.614;2022-11-13T19:25:23;16.73;;;9.57;;
35552;SDS011;21656;46.054;13.614;2022-11-13T19:27:49;16.52;;;9.57;;
35552;SDS011;21656;46.054;13.614;2022-11-13T19:30:18;13.95;;;8.95;;
35552;SDS011;21656;46.054;13.614;2022-11-13T19:32:43;14.27;;;9.10;;
35552;SDS011;21656;46.054;13.614;2022-11-13T19:35:09;15.57;;;9.73;;
35552;SDS011;21656;46.054;13.614;2022-11-13T19:37:34;14.10;;;9.55;;
35552;SDS011;21656;46.054;13.614;2022-11-13T19:40:00;15.55;;;10.23;;
35552;SDS011;21656;46.054;13.614;2022-11-13T19:42:25;15.68;;;9.65;;
35552;SDS011;21656;46.054;13.614;2022-11-13T19:44:51;17.88;;;10.07;;
35552;SDS011;21656;46.054;13.614;2022-11-13T19:47:16;14.63;;;9.23;;
35552;SDS011;21656;46.054;13.614;2022-11-13T19:49:41;15.05;;;9.27;;
35552;SDS011;21656;46.054;13.614;2022-11-13T19:52:07;17.48;;;10.15;;
35552;SDS011;21656;46.054;13.614;2022-11-13T19:54:32;19.75;;;11.13;;
35552;SDS011;21656;46.054;13.614;2022-11-13T19:56:57;18.95;;;11.23;;
35552;SDS011;21656;46.054;13.614;2022-11-13T19:59:23;16.88;;;10.98;;
35552;SDS011;21656;46.054;13.614;2022-11-13T20:01:48;19.42;;;10.48;;
35552;SDS011;21656;46.054;13.614;2022-11-13T20:04:14;15.10;;;9.52;;
35552;SDS011;21656;46.054;13.614;2022-11-13T20:06:39;17.13;;;10.25;;
35552;SDS011;21656;46.054;13.614;2022-11-13T20:09:04;18.05;;;10.73;;
35552;SDS011;21656;46.054;13.614;2022-11-13T20:11:30;17.65;;;10.48;;
35552;SDS011;21656;46.054;13.614;2022-11-13T20:13:56;19.02;;;11.02;;
35552;SDS011;21656;46.054;13.614;2022-11-13T20:16:22;18.17;;;10.20;;
35552;SDS011;21656;46.054;13.614;2022-11-13T20:18:48;18.55;;;11.45;;
35552;SDS011;21656;46.054;13.614;2022-11-13T20:21:21;16.75;;;10.80;;
35552;SDS011;21656;46.054;13.614;2022-11-13T20:23:48;16.95;;;10.73;;
35552;SDS011;21656;46.054;13.614;2022-11-13T20:26:13;16.48;;;11.00;;
35552;SDS011;21656;46.054;13.614;2022-11-13T20:28:40;15.77;;;9.70;;
35552;SDS011;21656;46.054;13.614;2022-11-13T20:31:16;17.35;;;9.80;;
35552;SDS011;21656;46.054;13.614;2022-11-13T20:33:44;18.27;;;11.07;;
35552;SDS011;21656;46.054;13.614;2022-11-13T20:36:12;19.83;;;10.52;;
35552;SDS011;21656;46.054;13.614;2022-11-13T20:38:38;20.70;;;11.48;;
35552;SDS011;21656;46.054;13.614;2022-11-13T20:41:04;19.60;;;11.82;;
35552;SDS011;21656;46.054;13.614;2022-11-13T20:43:32;16.10;;;10.35;;
35552;SDS011;21656;46.054;13.614;2022-11-13T20:46:01;16.75;;;9.93;;
35552;SDS011;21656;46.054;13.614;2022-11-13T20:48:27;17.58;;;9.73;;
35552;SDS011;21656;46.054;13.614;2022-11-13T20:50:53;14.73;;;10.00;;
35552;SDS011;21656;46.054;13.614;2022-11-13T20:53:18;18.10;;;11.00;;
35552;SDS011;21656;46.054;13.614;2022-11-13T20:55:43;18.05;;;10.60;;
35552;SDS011;21656;46.054;13.614;2022-11-13T20:58:09;19.52;;;10.65;;
35552;SDS011;21656;46.054;13.614;2022-11-13T21:00:34;16.60;;;10.27;;
35552;SDS011;21656;46.054;13.614;2022-11-13T21:02:59;15.85;;;10.88;;
35552;SDS011;21656;46.054;13.614;2022-11-13T21:05:25;16.02;;;10.48;;
35552;SDS011;21656;46.054;13.614;2022-11-13T21:07:52;16.92;;;10.90;;
35552;SDS011;21656;46.054;13.614;2022-11-13T21:10:17;16.48;;;10.50;;
35552;SDS011;21656;46.054;13.614;2022-11-13T21:12:43;17.38;;;9.93;;
35552;SDS011;21656;46.054;13.614;2022-11-13T21:15:08;18.95;;;10.82;;
35552;SDS011;21656;46.054;13.614;2022-11-13T21:17:34;20.42;;;11.55;;
35552;SDS011;21656;46.054;13.614;2022-11-13T21:20:00;20.13;;;12.60;;
35552;SDS011;21656;46.054;13.614;2022-11-13T21:22:26;18.27;;;11.73;;
35552;SDS011;21656;46.054;13.614;2022-11-13T21:24:51;20.80;;;11.77;;
35552;SDS011;21656;46.054;13.614;2022-11-13T21:27:17;22.45;;;12.52;;
35552;SDS011;21656;46.054;13.614;2022-11-13T21:29:42;20.38;;;12.90;;
